createdAt,value
2017-12-21T00:00:30.205Z,1024.86
2017-12-21T00:01:10.781Z,1024.85
2017-12-21T00:01:51.383Z,1024.86
2017-12-21T00:02:32.027Z,1024.84
2017-12-21T00:03:12.608Z,1024.84
2017-12-21T00:03:53.183Z,1024.85
2017-12-21T00:04:33.771Z,1024.87
2017-12-21T00:05:14.383Z,1024.89
2017-12-21T00:05:54.967Z,1024.87
2017-12-21T00:06:35.572Z,1024.86
2017-12-21T00:07:16.232Z,1024.85
2017-12-21T00:07:56.789Z,1024.81
2017-12-21T00:08:37.386Z,1024.81
2017-12-21T00:09:17.998Z,1024.84
2017-12-21T00:09:58.585Z,1024.83
2017-12-21T00:10:39.198Z,1024.82
2017-12-21T00:11:19.783Z,1024.84
2017-12-21T00:12:00.349Z,1024.82
2017-12-21T00:12:40.968Z,1024.82
2017-12-21T00:13:21.531Z,1024.79
2017-12-21T00:14:02.102Z,1024.76
2017-12-21T00:14:42.681Z,1024.7
2017-12-21T00:15:23.281Z,1024.71
2017-12-21T00:16:03.883Z,1024.64
2017-12-21T00:16:44.450Z,1024.63
2017-12-21T00:17:25.040Z,1024.56
2017-12-21T00:18:05.600Z,1024.52
2017-12-21T00:18:46.192Z,1024.44
2017-12-21T00:19:26.793Z,1024.47
2017-12-21T00:20:07.365Z,1024.44
2017-12-21T00:20:47.936Z,1024.38
2017-12-21T00:21:28.505Z,1024.32
2017-12-21T00:22:09.095Z,1024.31
2017-12-21T00:22:49.667Z,1024.26
2017-12-21T00:23:30.271Z,1024.24
2017-12-21T00:24:10.818Z,1024.26
2017-12-21T00:24:51.463Z,1024.25
2017-12-21T00:25:32.008Z,1024.3
2017-12-21T00:26:12.569Z,1024.3
2017-12-21T00:26:53.179Z,1024.3
2017-12-21T00:27:33.785Z,1024.34
2017-12-21T00:28:14.373Z,1024.35
2017-12-21T00:28:54.988Z,1024.37
2017-12-21T00:29:35.548Z,1024.36
2017-12-21T00:30:16.122Z,1024.37
2017-12-21T00:30:56.735Z,1024.37
2017-12-21T00:31:37.342Z,1024.31
2017-12-21T00:32:17.945Z,1024.3
2017-12-21T00:32:58.543Z,1024.27
2017-12-21T00:33:39.098Z,1024.24
2017-12-21T00:34:19.707Z,1024.29
2017-12-21T00:35:00.339Z,1024.37
2017-12-21T00:35:40.906Z,1024.37
2017-12-21T00:36:21.486Z,1024.41
2017-12-21T00:37:02.105Z,1024.34
2017-12-21T00:37:42.657Z,1024.33
2017-12-21T00:38:23.255Z,1024.35
2017-12-21T00:39:03.861Z,1024.35
2017-12-21T00:39:44.438Z,1024.33
2017-12-21T00:40:25.030Z,1024.32
2017-12-21T00:41:05.622Z,1024.35
2017-12-21T00:41:46.249Z,1024.29
2017-12-21T00:42:26.823Z,1024.3
2017-12-21T00:43:07.413Z,1024.3
2017-12-21T00:43:48.017Z,1024.31
2017-12-21T00:44:28.635Z,1024.27
2017-12-21T00:45:09.242Z,1024.25
2017-12-21T00:45:49.833Z,1024.24
2017-12-21T00:46:30.443Z,1024.21
2017-12-21T00:47:11.025Z,1024.18
2017-12-21T00:47:51.590Z,1024.12
2017-12-21T00:48:32.177Z,1024.14
2017-12-21T00:49:12.747Z,1024.1
2017-12-21T00:49:53.318Z,1024.12
2017-12-21T00:50:33.893Z,1024.15
2017-12-21T00:51:14.473Z,1024.18
2017-12-21T00:51:55.047Z,1024.15
2017-12-21T00:52:35.626Z,1024.15
2017-12-21T00:53:16.202Z,1024.11
2017-12-21T00:53:56.836Z,1024.1
2017-12-21T00:54:37.438Z,1024.08
2017-12-21T00:55:18.001Z,1024.14
2017-12-21T00:55:58.587Z,1024.13
2017-12-21T00:56:39.165Z,1024.18
2017-12-21T00:57:19.738Z,1024.19
2017-12-21T00:58:00.290Z,1024.18
2017-12-21T00:58:40.918Z,1024.22
2017-12-21T00:59:21.616Z,1024.17
2017-12-21T01:00:02.194Z,1024.15
2017-12-21T01:00:42.810Z,1024.16
2017-12-21T01:01:23.362Z,1024.11
2017-12-21T01:02:03.934Z,1024.14
2017-12-21T01:02:44.526Z,1024.13
2017-12-21T01:03:25.152Z,1024.1
2017-12-21T01:04:05.708Z,1024.09
2017-12-21T01:04:46.281Z,1024.06
2017-12-21T01:05:26.868Z,1024.04
2017-12-21T01:06:07.486Z,1024.02
2017-12-21T01:06:48.111Z,1024.01
2017-12-21T01:07:28.758Z,1023.98
2017-12-21T01:08:09.315Z,1023.93
2017-12-21T01:08:49.913Z,1023.88
2017-12-21T01:09:30.463Z,1023.85
2017-12-21T01:10:11.071Z,1023.88
2017-12-21T01:10:51.643Z,1023.84
2017-12-21T01:11:32.212Z,1023.85
2017-12-21T01:12:12.786Z,1023.81
2017-12-21T01:12:53.374Z,1023.83
2017-12-21T01:13:33.947Z,1023.86
2017-12-21T01:14:14.502Z,1023.9
2017-12-21T01:14:55.131Z,1023.94
2017-12-21T01:15:35.689Z,1023.93
2017-12-21T01:16:16.280Z,1023.95
2017-12-21T01:16:56.836Z,1023.92
2017-12-21T01:17:37.446Z,1023.96
2017-12-21T01:18:17.998Z,1023.91
2017-12-21T01:18:58.577Z,1023.94
2017-12-21T01:19:39.206Z,1023.89
2017-12-21T01:20:19.807Z,1023.91
2017-12-21T01:21:00.407Z,1023.97
2017-12-21T01:21:40.990Z,1023.96
2017-12-21T01:22:21.590Z,1023.98
2017-12-21T01:23:02.179Z,1023.99
2017-12-21T01:23:42.755Z,1023.97
2017-12-21T01:24:23.334Z,1024.04
2017-12-21T01:25:03.940Z,1023.97
2017-12-21T01:25:44.500Z,1024.04
2017-12-21T01:26:25.126Z,1024.02
2017-12-21T01:27:05.672Z,1023.97
2017-12-21T01:27:46.248Z,1024.01
2017-12-21T01:28:26.835Z,1024.01
2017-12-21T01:29:07.400Z,1024
2017-12-21T01:29:47.987Z,1024.01
2017-12-21T01:30:28.561Z,1024.06
2017-12-21T01:31:09.132Z,1024.01
2017-12-21T01:31:49.708Z,1024.07
2017-12-21T01:32:30.322Z,1024.03
2017-12-21T01:33:10.907Z,1024.03
2017-12-21T01:33:51.519Z,1024.04
2017-12-21T01:34:32.082Z,1023.98
2017-12-21T01:35:12.723Z,1023.97
2017-12-21T01:35:53.271Z,1023.94
2017-12-21T01:36:33.843Z,1023.9
2017-12-21T01:37:14.452Z,1023.91
2017-12-21T01:37:55.031Z,1023.92
2017-12-21T01:38:35.654Z,1023.92
2017-12-21T01:39:16.239Z,1023.9
2017-12-21T01:39:56.872Z,1023.93
2017-12-21T01:40:37.474Z,1023.92
2017-12-21T01:41:18.072Z,1023.89
2017-12-21T01:41:58.642Z,1023.9
2017-12-21T01:42:39.268Z,1023.88
2017-12-21T01:43:19.882Z,1023.93
2017-12-21T01:44:00.479Z,1023.86
2017-12-21T01:44:41.028Z,1023.89
2017-12-21T01:45:21.630Z,1023.86
2017-12-21T01:46:02.181Z,1023.87
2017-12-21T01:46:42.756Z,1023.89
2017-12-21T01:47:23.326Z,1023.89
2017-12-21T01:48:03.892Z,1023.92
2017-12-21T01:48:44.485Z,1023.92
2017-12-21T01:49:25.091Z,1023.95
2017-12-21T01:50:05.689Z,1023.93
2017-12-21T01:50:46.292Z,1023.98
2017-12-21T01:51:26.912Z,1023.99
2017-12-21T01:52:07.510Z,1023.95
2017-12-21T01:52:48.094Z,1023.97
2017-12-21T01:53:28.714Z,1023.93
2017-12-21T01:54:09.306Z,1023.95
2017-12-21T01:54:49.910Z,1023.92
2017-12-21T01:55:30.455Z,1023.93
2017-12-21T01:56:11.015Z,1023.94
2017-12-21T01:56:51.572Z,1023.96
2017-12-21T01:57:32.165Z,1023.89
2017-12-21T01:58:12.742Z,1023.92
2017-12-21T01:58:53.326Z,1023.94
2017-12-21T01:59:33.937Z,1023.92
2017-12-21T02:00:14.501Z,1023.9
2017-12-21T02:00:55.073Z,1023.87
2017-12-21T02:01:35.655Z,1023.87
2017-12-21T02:02:16.278Z,1023.88
2017-12-21T02:02:56.839Z,1023.86
2017-12-21T02:03:37.466Z,1023.87
2017-12-21T02:04:18.038Z,1023.85
2017-12-21T02:04:58.597Z,1023.91
2017-12-21T02:05:39.175Z,1023.86
2017-12-21T02:06:19.753Z,1023.89
2017-12-21T02:07:00.386Z,1023.82
2017-12-21T02:07:41.035Z,1023.79
2017-12-21T02:08:21.663Z,1023.79
2017-12-21T02:09:02.194Z,1023.78
2017-12-21T02:09:42.783Z,1023.72
2017-12-21T02:10:23.355Z,1023.73
2017-12-21T02:11:03.972Z,1023.69
2017-12-21T02:11:44.601Z,1023.69
2017-12-21T02:12:25.177Z,1023.71
2017-12-21T02:13:05.761Z,1023.7
2017-12-21T02:13:46.334Z,1023.7
2017-12-21T02:14:26.926Z,1023.69
2017-12-21T02:15:07.486Z,1023.7
2017-12-21T02:15:48.087Z,1023.73
2017-12-21T02:16:28.660Z,1023.71
2017-12-21T02:17:09.237Z,1023.72
2017-12-21T02:17:49.854Z,1023.72
2017-12-21T02:18:30.437Z,1023.7
2017-12-21T02:19:10.997Z,1023.76
2017-12-21T02:19:51.595Z,1023.75
2017-12-21T02:20:32.190Z,1023.72
2017-12-21T02:21:12.810Z,1023.76
2017-12-21T02:21:53.393Z,1023.77
2017-12-21T02:22:33.987Z,1023.75
2017-12-21T02:23:14.594Z,1023.74
2017-12-21T02:23:55.148Z,1023.76
2017-12-21T02:24:35.734Z,1023.78
2017-12-21T02:25:16.289Z,1023.74
2017-12-21T02:25:56.879Z,1023.75
2017-12-21T02:26:37.442Z,1023.73
2017-12-21T02:27:18.008Z,1023.7
2017-12-21T02:27:58.584Z,1023.71
2017-12-21T02:28:39.149Z,1023.69
2017-12-21T02:29:19.714Z,1023.63
2017-12-21T02:30:00.277Z,1023.66
2017-12-21T02:30:40.873Z,1023.67
2017-12-21T02:31:21.454Z,1023.62
2017-12-21T02:32:02.017Z,1023.63
2017-12-21T02:32:42.631Z,1023.66
2017-12-21T02:33:23.234Z,1023.63
2017-12-21T02:34:03.806Z,1023.64
2017-12-21T02:34:44.397Z,1023.62
2017-12-21T02:35:24.977Z,1023.59
2017-12-21T02:36:05.583Z,1023.62
2017-12-21T02:36:46.183Z,1023.59
2017-12-21T02:37:26.791Z,1023.58
2017-12-21T02:38:07.355Z,1023.52
2017-12-21T02:38:47.950Z,1023.49
2017-12-21T02:39:28.551Z,1023.52
2017-12-21T02:40:09.122Z,1023.45
2017-12-21T02:40:49.686Z,1023.48
2017-12-21T02:41:30.303Z,1023.49
2017-12-21T02:42:10.863Z,1023.49
2017-12-21T02:42:51.438Z,1023.47
2017-12-21T02:43:32.010Z,1023.46
2017-12-21T02:44:12.587Z,1023.5
2017-12-21T02:44:53.170Z,1023.5
2017-12-21T02:45:33.707Z,1023.51
2017-12-21T02:46:14.272Z,1023.52
2017-12-21T02:46:54.863Z,1023.52
2017-12-21T02:47:35.466Z,1023.54
2017-12-21T02:48:16.020Z,1023.52
2017-12-21T02:48:56.601Z,1023.53
2017-12-21T02:49:37.159Z,1023.5
2017-12-21T02:50:17.763Z,1023.55
2017-12-21T02:50:58.376Z,1023.55
2017-12-21T02:51:38.950Z,1023.55
2017-12-21T02:52:19.581Z,1023.51
2017-12-21T02:53:00.156Z,1023.53
2017-12-21T02:53:40.750Z,1023.54
2017-12-21T02:54:21.316Z,1023.49
2017-12-21T02:55:01.943Z,1023.49
2017-12-21T02:55:42.537Z,1023.46
2017-12-21T02:56:23.153Z,1023.45
2017-12-21T02:57:03.729Z,1023.41
2017-12-21T02:57:44.318Z,1023.42
2017-12-21T02:58:24.912Z,1023.42
2017-12-21T02:59:05.487Z,1023.4
2017-12-21T02:59:46.054Z,1023.38
2017-12-21T03:00:26.630Z,1023.34
2017-12-21T03:01:07.231Z,1023.33
2017-12-21T03:01:47.801Z,1023.33
2017-12-21T03:02:28.409Z,1023.3
2017-12-21T03:03:08.960Z,1023.27
2017-12-21T03:03:49.544Z,1023.3
2017-12-21T03:04:30.114Z,1023.32
2017-12-21T03:05:10.701Z,1023.31
2017-12-21T03:05:51.296Z,1023.3
2017-12-21T03:06:31.902Z,1023.3
2017-12-21T03:07:12.493Z,1023.28
2017-12-21T03:07:53.100Z,1023.31
2017-12-21T03:08:33.680Z,1023.34
2017-12-21T03:09:14.252Z,1023.34
2017-12-21T03:09:54.823Z,1023.34
2017-12-21T03:10:35.442Z,1023.38
2017-12-21T03:11:16.012Z,1023.39
2017-12-21T03:11:56.588Z,1023.35
2017-12-21T03:12:37.223Z,1023.37
2017-12-21T03:13:17.788Z,1023.34
2017-12-21T03:13:58.356Z,1023.32
2017-12-21T03:14:38.927Z,1023.31
2017-12-21T03:15:19.578Z,1023.37
2017-12-21T03:16:00.146Z,1023.33
2017-12-21T03:16:40.717Z,1023.3
2017-12-21T03:17:21.293Z,1023.29
2017-12-21T03:18:01.854Z,1023.24
2017-12-21T03:18:42.469Z,1023.28
2017-12-21T03:19:23.065Z,1023.26
2017-12-21T03:20:03.647Z,1023.27
2017-12-21T03:20:44.260Z,1023.24
2017-12-21T03:21:24.870Z,1023.28
2017-12-21T03:22:05.424Z,1023.28
2017-12-21T03:22:46.047Z,1023.27
2017-12-21T03:23:26.627Z,1023.25
2017-12-21T03:24:07.234Z,1023.25
2017-12-21T03:24:47.846Z,1023.27
2017-12-21T03:25:28.407Z,1023.24
2017-12-21T03:26:08.986Z,1023.2
2017-12-21T03:26:49.583Z,1023.21
2017-12-21T03:27:30.133Z,1023.16
2017-12-21T03:28:10.712Z,1023.15
2017-12-21T03:28:51.307Z,1023.15
2017-12-21T03:29:31.936Z,1023.16
2017-12-21T03:30:12.505Z,1023.18
2017-12-21T03:30:53.107Z,1023.16
2017-12-21T03:31:33.667Z,1023.11
2017-12-21T03:32:14.226Z,1023.13
2017-12-21T03:32:54.836Z,1023.18
2017-12-21T03:33:35.386Z,1023.13
2017-12-21T03:34:15.962Z,1023.17
2017-12-21T03:34:56.567Z,1023.19
2017-12-21T03:35:37.145Z,1023.16
2017-12-21T03:36:17.854Z,1023.17
2017-12-21T03:36:58.409Z,1023.13
2017-12-21T03:37:38.995Z,1023.16
2017-12-21T03:38:19.598Z,1023.16
2017-12-21T03:39:00.209Z,1023.19
2017-12-21T03:39:40.786Z,1023.16
2017-12-21T03:40:21.344Z,1023.11
2017-12-21T03:41:01.989Z,1023.13
2017-12-21T03:41:42.565Z,1023.14
2017-12-21T03:42:23.182Z,1023.16
2017-12-21T03:43:03.763Z,1023.16
2017-12-21T03:43:44.355Z,1023.15
2017-12-21T03:44:24.965Z,1023.13
2017-12-21T03:45:05.536Z,1023.12
2017-12-21T03:45:46.115Z,1023.14
2017-12-21T03:46:26.681Z,1023.08
2017-12-21T03:47:07.236Z,1023.07
2017-12-21T03:47:47.816Z,1023.09
2017-12-21T03:48:28.412Z,1023.04
2017-12-21T03:49:09.024Z,1023.1
2017-12-21T03:49:49.571Z,1023.05
2017-12-21T03:50:30.184Z,1023.05
2017-12-21T03:51:10.799Z,1023.05
2017-12-21T03:51:51.332Z,1023.02
2017-12-21T03:52:31.914Z,1023.03
2017-12-21T03:53:12.491Z,1023.09
2017-12-21T03:53:53.058Z,1023.01
2017-12-21T03:54:33.636Z,1023.03
2017-12-21T03:55:14.286Z,1023.01
2017-12-21T03:55:54.888Z,1023.03
2017-12-21T03:56:35.464Z,1023
2017-12-21T03:57:16.083Z,1023.02
2017-12-21T03:57:56.700Z,1022.96
2017-12-21T03:58:37.303Z,1022.95
2017-12-21T03:59:17.907Z,1022.91
2017-12-21T03:59:58.502Z,1022.9
2017-12-21T04:00:39.112Z,1022.94
2017-12-21T04:01:19.700Z,1022.94
2017-12-21T04:02:00.304Z,1022.92
2017-12-21T04:02:40.875Z,1022.89
2017-12-21T04:03:21.453Z,1022.9
2017-12-21T04:04:02.032Z,1022.91
2017-12-21T04:04:42.588Z,1022.89
2017-12-21T04:05:23.185Z,1022.93
2017-12-21T04:06:03.771Z,1022.89
2017-12-21T04:06:44.418Z,1022.86
2017-12-21T04:07:25.021Z,1022.9
2017-12-21T04:08:05.630Z,1022.89
2017-12-21T04:08:46.194Z,1022.91
2017-12-21T04:09:26.807Z,1022.85
2017-12-21T04:10:07.390Z,1022.84
2017-12-21T04:10:47.976Z,1022.86
2017-12-21T04:11:28.573Z,1022.84
2017-12-21T04:12:09.210Z,1022.83
2017-12-21T04:12:49.770Z,1022.8
2017-12-21T04:13:30.366Z,1022.81
2017-12-21T04:14:10.978Z,1022.79
2017-12-21T04:14:51.555Z,1022.79
2017-12-21T04:15:32.150Z,1022.77
2017-12-21T04:16:12.740Z,1022.75
2017-12-21T04:16:53.307Z,1022.79
2017-12-21T04:17:33.899Z,1022.79
2017-12-21T04:18:14.502Z,1022.78
2017-12-21T04:18:55.069Z,1022.77
2017-12-21T04:19:35.637Z,1022.76
2017-12-21T04:20:16.227Z,1022.72
2017-12-21T04:20:56.832Z,1022.69
2017-12-21T04:21:37.435Z,1022.7
2017-12-21T04:22:18.054Z,1022.7
2017-12-21T04:22:58.631Z,1022.68
2017-12-21T04:23:39.233Z,1022.62
2017-12-21T04:24:19.845Z,1022.67
2017-12-21T04:25:00.428Z,1022.63
2017-12-21T04:25:41.019Z,1022.65
2017-12-21T04:26:21.653Z,1022.67
2017-12-21T04:27:02.249Z,1022.66
2017-12-21T04:27:42.841Z,1022.67
2017-12-21T04:28:23.484Z,1022.67
2017-12-21T04:29:04.078Z,1022.66
2017-12-21T04:29:44.686Z,1022.69
2017-12-21T04:30:25.247Z,1022.68
2017-12-21T04:31:05.814Z,1022.68
2017-12-21T04:31:46.412Z,1022.68
2017-12-21T04:32:26.969Z,1022.66
2017-12-21T04:33:07.548Z,1022.69
2017-12-21T04:33:48.124Z,1022.7
2017-12-21T04:34:28.676Z,1022.71
2017-12-21T04:35:09.269Z,1022.71
2017-12-21T04:35:49.863Z,1022.72
2017-12-21T04:36:30.486Z,1022.74
2017-12-21T04:37:11.096Z,1022.76
2017-12-21T04:37:51.703Z,1022.75
2017-12-21T04:38:32.271Z,1022.76
2017-12-21T04:39:12.908Z,1022.73
2017-12-21T04:39:53.473Z,1022.78
2017-12-21T04:40:34.068Z,1022.77
2017-12-21T04:41:14.659Z,1022.76
2017-12-21T04:41:55.236Z,1022.77
2017-12-21T04:42:35.814Z,1022.75
2017-12-21T04:43:16.404Z,1022.72
2017-12-21T04:43:57.000Z,1022.8
2017-12-21T04:44:37.571Z,1022.77
2017-12-21T04:45:18.203Z,1022.77
2017-12-21T04:45:58.745Z,1022.81
2017-12-21T04:46:39.398Z,1022.78
2017-12-21T04:47:19.987Z,1022.76
2017-12-21T04:48:00.543Z,1022.75
2017-12-21T04:48:41.132Z,1022.75
2017-12-21T04:49:21.732Z,1022.73
2017-12-21T04:50:02.339Z,1022.75
2017-12-21T04:50:42.919Z,1022.74
2017-12-21T04:51:23.558Z,1022.72
2017-12-21T04:52:04.081Z,1022.74
2017-12-21T04:52:44.716Z,1022.75
2017-12-21T04:53:25.320Z,1022.73
2017-12-21T04:54:05.905Z,1022.75
2017-12-21T04:54:46.487Z,1022.8
2017-12-21T04:55:27.045Z,1022.77
2017-12-21T04:56:07.689Z,1022.77
2017-12-21T04:56:48.313Z,1022.78
2017-12-21T04:57:28.919Z,1022.77
2017-12-21T04:58:09.483Z,1022.73
2017-12-21T04:58:50.080Z,1022.77
2017-12-21T04:59:30.666Z,1022.74
2017-12-21T05:00:11.280Z,1022.73
2017-12-21T05:00:51.955Z,1022.72
2017-12-21T05:01:32.557Z,1022.74
2017-12-21T05:02:13.278Z,1022.74
2017-12-21T05:02:54.124Z,1022.71
2017-12-21T05:03:34.693Z,1022.7
2017-12-21T05:04:15.283Z,1022.73
2017-12-21T05:04:55.895Z,1022.76
2017-12-21T05:05:36.594Z,1022.71
2017-12-21T05:06:17.803Z,1022.7
2017-12-21T05:06:58.770Z,1022.72
2017-12-21T05:07:39.735Z,1022.66
2017-12-21T05:08:20.337Z,1022.66
2017-12-21T05:09:00.916Z,1022.65
2017-12-21T05:09:41.541Z,1022.67
2017-12-21T05:10:22.102Z,1022.63
2017-12-21T05:11:02.700Z,1022.66
2017-12-21T05:11:43.264Z,1022.7
2017-12-21T05:12:23.830Z,1022.64
2017-12-21T05:13:04.444Z,1022.7
2017-12-21T05:13:45.101Z,1022.68
2017-12-21T05:14:25.937Z,1022.65
2017-12-21T05:15:06.689Z,1022.65
2017-12-21T05:15:47.714Z,1022.65
2017-12-21T05:16:28.520Z,1022.65
2017-12-21T05:17:09.313Z,1022.65
2017-12-21T05:17:49.902Z,1022.58
2017-12-21T05:18:30.581Z,1022.6
2017-12-21T05:19:11.156Z,1022.61
2017-12-21T05:19:51.751Z,1022.6
2017-12-21T05:20:32.326Z,1022.59
2017-12-21T05:21:12.921Z,1022.61
2017-12-21T05:21:54.206Z,1022.64
2017-12-21T05:22:35.135Z,1022.66
2017-12-21T05:23:15.936Z,1022.64
2017-12-21T05:23:56.711Z,1022.62
2017-12-21T05:24:37.477Z,1022.61
2017-12-21T05:25:18.245Z,1022.67
2017-12-21T05:25:58.829Z,1022.66
2017-12-21T05:26:39.811Z,1022.64
2017-12-21T05:27:20.774Z,1022.63
2017-12-21T05:28:01.601Z,1022.62
2017-12-21T05:28:42.282Z,1022.61
2017-12-21T05:29:23.210Z,1022.66
2017-12-21T05:30:04.454Z,1022.62
2017-12-21T05:30:45.667Z,1022.61
2017-12-21T05:31:26.591Z,1022.66
2017-12-21T05:32:07.934Z,1022.72
2017-12-21T05:32:49.133Z,1022.66
2017-12-21T05:33:29.882Z,1022.67
2017-12-21T05:34:10.513Z,1022.63
2017-12-21T05:34:51.470Z,1022.66
2017-12-21T05:35:32.186Z,1022.62
2017-12-21T05:36:12.776Z,1022.64
2017-12-21T05:36:53.402Z,1022.66
2017-12-21T05:37:33.992Z,1022.65
2017-12-21T05:38:14.573Z,1022.6
2017-12-21T05:38:55.208Z,1022.61
2017-12-21T05:39:35.780Z,1022.59
2017-12-21T05:40:16.497Z,1022.63
2017-12-21T05:40:57.149Z,1022.6
2017-12-21T05:41:37.827Z,1022.6
2017-12-21T05:42:18.538Z,1022.63
2017-12-21T05:42:59.263Z,1022.59
2017-12-21T05:43:40.360Z,1022.62
2017-12-21T05:44:20.998Z,1022.61
2017-12-21T05:45:01.779Z,1022.61
2017-12-21T05:45:42.373Z,1022.61
2017-12-21T05:46:23.018Z,1022.57
2017-12-21T05:47:03.593Z,1022.59
2017-12-21T05:47:44.381Z,1022.59
2017-12-21T05:48:25.576Z,1022.61
2017-12-21T05:49:06.934Z,1022.64
2017-12-21T05:49:47.531Z,1022.6
2017-12-21T05:50:28.920Z,1022.58
2017-12-21T05:51:10.852Z,1022.58
2017-12-21T05:51:51.945Z,1022.59
2017-12-21T05:52:32.772Z,1022.58
2017-12-21T05:53:13.369Z,1022.58
2017-12-21T05:53:54.331Z,1022.6
2017-12-21T05:54:34.927Z,1022.55
2017-12-21T05:55:15.522Z,1022.56
2017-12-21T05:55:56.136Z,1022.56
2017-12-21T05:56:37.241Z,1022.54
2017-12-21T05:57:18.527Z,1022.5
2017-12-21T05:58:00.149Z,1022.54
2017-12-21T05:58:42.713Z,1022.56
2017-12-21T05:59:23.642Z,1022.52
2017-12-21T06:00:05.287Z,1022.49
2017-12-21T06:00:46.081Z,1022.5
2017-12-21T06:01:27.775Z,1022.47
2017-12-21T06:02:08.502Z,1022.48
2017-12-21T06:02:49.107Z,1022.45
2017-12-21T06:03:30.825Z,1022.45
2017-12-21T06:04:12.849Z,1022.4
2017-12-21T06:04:54.655Z,1022.44
2017-12-21T06:05:35.254Z,1022.47
2017-12-21T06:06:15.868Z,1022.45
2017-12-21T06:06:56.546Z,1022.45
2017-12-21T06:07:37.649Z,1022.43
2017-12-21T06:08:18.515Z,1022.45
2017-12-21T06:08:59.231Z,1022.46
2017-12-21T06:09:39.958Z,1022.43
2017-12-21T06:10:20.594Z,1022.48
2017-12-21T06:11:01.202Z,1022.41
2017-12-21T06:11:41.824Z,1022.43
2017-12-21T06:12:22.408Z,1022.36
2017-12-21T06:13:03.002Z,1022.36
2017-12-21T06:13:43.569Z,1022.37
2017-12-21T06:14:25.109Z,1022.3
2017-12-21T06:15:06.195Z,1022.38
2017-12-21T06:15:47.147Z,1022.35
2017-12-21T06:16:27.989Z,1022.35
2017-12-21T06:17:08.778Z,1022.34
2017-12-21T06:17:49.583Z,1022.37
2017-12-21T06:18:30.631Z,1022.31
2017-12-21T06:19:11.368Z,1022.29
2017-12-21T06:19:51.965Z,1022.41
2017-12-21T06:20:32.534Z,1022.33
2017-12-21T06:21:13.130Z,1022.33
2017-12-21T06:21:53.731Z,1022.34
2017-12-21T06:22:34.445Z,1022.36
2017-12-21T06:23:15.586Z,1022.36
2017-12-21T06:23:56.502Z,1022.39
2017-12-21T06:24:37.368Z,1022.34
2017-12-21T06:25:18.243Z,1022.36
2017-12-21T06:25:58.930Z,1022.35
2017-12-21T06:26:39.588Z,1022.39
2017-12-21T06:27:20.437Z,1022.32
2017-12-21T06:28:01.179Z,1022.37
2017-12-21T06:28:42.097Z,1022.36
2017-12-21T06:29:22.963Z,1022.33
2017-12-21T06:30:03.570Z,1022.35
2017-12-21T06:30:44.168Z,1022.4
2017-12-21T06:31:24.733Z,1022.34
2017-12-21T06:32:05.803Z,1022.32
2017-12-21T06:32:46.485Z,1022.35
2017-12-21T06:33:27.437Z,1022.32
2017-12-21T06:34:09.013Z,1022.26
2017-12-21T06:34:49.640Z,1022.28
2017-12-21T06:35:30.233Z,1022.33
2017-12-21T06:36:11.072Z,1022.32
2017-12-21T06:36:51.688Z,1022.3
2017-12-21T06:37:32.411Z,1022.28
2017-12-21T06:38:13.096Z,1022.3
2017-12-21T06:38:53.686Z,1022.29
2017-12-21T06:39:34.266Z,1022.26
2017-12-21T06:40:15.410Z,1022.28
2017-12-21T06:40:56.014Z,1022.28
2017-12-21T06:41:36.712Z,1022.27
2017-12-21T06:42:17.319Z,1022.3
2017-12-21T06:42:58.021Z,1022.27
2017-12-21T06:43:38.591Z,1022.25
2017-12-21T06:44:19.311Z,1022.22
2017-12-21T06:44:59.896Z,1022.24
2017-12-21T06:45:40.475Z,1022.22
2017-12-21T06:46:21.065Z,1022.23
2017-12-21T06:47:01.649Z,1022.2
2017-12-21T06:47:42.234Z,1022.2
2017-12-21T06:48:22.840Z,1022.24
2017-12-21T06:49:03.444Z,1022.25
2017-12-21T06:49:44.048Z,1022.21
2017-12-21T06:50:24.628Z,1022.24
2017-12-21T06:51:05.772Z,1022.19
2017-12-21T06:51:46.428Z,1022.29
2017-12-21T06:52:26.994Z,1022.17
2017-12-21T06:53:07.686Z,1022.2
2017-12-21T06:53:48.282Z,1022.2
2017-12-21T06:54:28.844Z,1022.21
2017-12-21T06:55:09.448Z,1022.2
2017-12-21T06:55:50.394Z,1022.21
2017-12-21T06:56:31.380Z,1022.22
2017-12-21T06:57:12.014Z,1022.21
2017-12-21T06:57:52.588Z,1022.27
2017-12-21T06:58:33.185Z,1022.28
2017-12-21T06:59:13.765Z,1022.24
2017-12-21T06:59:54.352Z,1022.3
2017-12-21T07:00:35.021Z,1022.26
2017-12-21T07:01:15.635Z,1022.3
2017-12-21T07:01:56.225Z,1022.3
2017-12-21T07:02:36.793Z,1022.26
2017-12-21T07:03:17.374Z,1022.31
2017-12-21T07:03:57.986Z,1022.26
2017-12-21T07:04:38.547Z,1022.23
2017-12-21T07:05:19.117Z,1022.23
2017-12-21T07:05:59.698Z,1022.28
2017-12-21T07:06:40.301Z,1022.26
2017-12-21T07:07:20.867Z,1022.27
2017-12-21T07:08:01.452Z,1022.23
2017-12-21T07:08:42.043Z,1022.27
2017-12-21T07:09:22.872Z,1022.31
2017-12-21T07:10:03.498Z,1022.29
2017-12-21T07:10:44.068Z,1022.3
2017-12-21T07:11:24.635Z,1022.28
2017-12-21T07:12:05.208Z,1022.31
2017-12-21T07:12:45.792Z,1022.29
2017-12-21T07:13:26.626Z,1022.29
2017-12-21T07:14:07.698Z,1022.31
2017-12-21T07:14:48.626Z,1022.34
2017-12-21T07:15:29.561Z,1022.36
2017-12-21T07:16:10.360Z,1022.36
2017-12-21T07:16:51.679Z,1022.41
2017-12-21T07:17:32.696Z,1022.35
2017-12-21T07:18:13.936Z,1022.39
2017-12-21T07:18:54.811Z,1022.4
2017-12-21T07:19:35.404Z,1022.41
2017-12-21T07:20:15.976Z,1022.42
2017-12-21T07:20:56.700Z,1022.4
2017-12-21T07:21:37.247Z,1022.4
2017-12-21T07:22:18.419Z,1022.41
2017-12-21T07:23:00.508Z,1022.44
2017-12-21T07:23:41.096Z,1022.45
2017-12-21T07:24:21.712Z,1022.44
2017-12-21T07:25:02.315Z,1022.44
2017-12-21T07:25:42.876Z,1022.45
2017-12-21T07:26:23.452Z,1022.43
2017-12-21T07:27:04.062Z,1022.45
2017-12-21T07:27:44.644Z,1022.47
2017-12-21T07:28:25.225Z,1022.44
2017-12-21T07:29:05.795Z,1022.47
2017-12-21T07:29:46.390Z,1022.44
2017-12-21T07:30:26.981Z,1022.44
2017-12-21T07:31:07.567Z,1022.46
2017-12-21T07:31:48.165Z,1022.45
2017-12-21T07:32:28.723Z,1022.43
2017-12-21T07:33:09.316Z,1022.43
2017-12-21T07:33:49.903Z,1022.45
2017-12-21T07:34:30.491Z,1022.49
2017-12-21T07:35:11.142Z,1022.38
2017-12-21T07:35:51.740Z,1022.43
2017-12-21T07:36:32.324Z,1022.48
2017-12-21T07:37:12.975Z,1022.5
2017-12-21T07:37:53.564Z,1022.5
2017-12-21T07:38:34.166Z,1022.47
2017-12-21T07:39:14.749Z,1022.49
2017-12-21T07:39:55.357Z,1022.53
2017-12-21T07:40:35.927Z,1022.49
2017-12-21T07:41:16.502Z,1022.48
2017-12-21T07:41:57.070Z,1022.45
2017-12-21T07:42:37.655Z,1022.45
2017-12-21T07:43:18.219Z,1022.47
2017-12-21T07:43:58.812Z,1022.46
2017-12-21T07:44:39.361Z,1022.5
2017-12-21T07:45:19.933Z,1022.46
2017-12-21T07:46:00.526Z,1022.46
2017-12-21T07:46:41.129Z,1022.51
2017-12-21T07:47:21.727Z,1022.46
2017-12-21T07:48:02.303Z,1022.49
2017-12-21T07:48:42.872Z,1022.49
2017-12-21T07:49:23.518Z,1022.45
2017-12-21T07:50:04.106Z,1022.46
2017-12-21T07:50:44.666Z,1022.49
2017-12-21T07:51:25.230Z,1022.46
2017-12-21T07:52:05.794Z,1022.49
2017-12-21T07:52:46.379Z,1022.45
2017-12-21T07:53:26.958Z,1022.43
2017-12-21T07:54:07.544Z,1022.44
2017-12-21T07:54:48.159Z,1022.45
2017-12-21T07:55:28.785Z,1022.48
2017-12-21T07:56:09.394Z,1022.46
2017-12-21T07:56:50.012Z,1022.47
2017-12-21T07:57:30.610Z,1022.47
2017-12-21T07:58:11.207Z,1022.48
2017-12-21T07:58:51.803Z,1022.43
2017-12-21T07:59:32.369Z,1022.43
2017-12-21T08:00:12.964Z,1022.44
2017-12-21T08:00:53.564Z,1022.43
2017-12-21T08:01:34.156Z,1022.39
2017-12-21T08:02:14.730Z,1022.45
2017-12-21T08:02:55.348Z,1022.4
2017-12-21T08:03:35.930Z,1022.38
2017-12-21T08:04:16.523Z,1022.39
2017-12-21T08:04:57.083Z,1022.35
2017-12-21T08:05:37.689Z,1022.3
2017-12-21T08:06:18.266Z,1022.37
2017-12-21T08:06:58.834Z,1022.37
2017-12-21T08:07:39.467Z,1022.43
2017-12-21T08:08:20.039Z,1022.42
2017-12-21T08:09:00.599Z,1022.38
2017-12-21T08:09:41.181Z,1022.4
2017-12-21T08:10:21.765Z,1022.36
2017-12-21T08:11:02.345Z,1022.34
2017-12-21T08:11:42.962Z,1022.37
2017-12-21T08:12:23.560Z,1022.31
2017-12-21T08:13:04.103Z,1022.31
2017-12-21T08:13:44.756Z,1022.31